createdAt,value
2023-02-25T00:00:54.453Z,0
2023-02-25T00:02:03.404Z,0
2023-02-25T00:02:54.553Z,0
2023-02-25T00:03:54.470Z,0
2023-02-25T00:04:54.466Z,0
2023-02-25T00:05:54.476Z,0
2023-02-25T00:06:54.463Z,0
2023-02-25T00:07:54.459Z,0
2023-02-25T00:08:54.507Z,0
2023-02-25T00:09:54.457Z,0
2023-02-25T00:10:54.456Z,0
2023-02-25T00:11:54.453Z,0
2023-02-25T00:12:54.618Z,0
2023-02-25T00:13:54.492Z,0
2023-02-25T00:14:54.458Z,0
2023-02-25T00:15:54.453Z,0
2023-02-25T00:16:54.511Z,0
2023-02-25T00:17:54.464Z,0
2023-02-25T00:18:54.469Z,0
2023-02-25T00:19:54.455Z,0
2023-02-25T00:20:54.476Z,0
2023-02-25T00:21:54.466Z,0
2023-02-25T00:22:54.463Z,0
2023-02-25T00:23:55.021Z,0
2023-02-25T00:24:54.455Z,0
2023-02-25T00:25:54.451Z,0
2023-02-25T00:26:54.478Z,0
2023-02-25T00:27:54.464Z,0
2023-02-25T00:28:54.482Z,0
2023-02-25T00:29:54.470Z,0
2023-02-25T00:30:54.553Z,0
2023-02-25T00:31:54.736Z,0
2023-02-25T00:32:54.516Z,0
2023-02-25T00:33:54.474Z,0
2023-02-25T00:34:54.460Z,0
2023-02-25T00:35:54.473Z,0
2023-02-25T00:36:54.604Z,0
2023-02-25T00:37:59.182Z,0
2023-02-25T00:38:54.475Z,0
2023-02-25T00:39:54.459Z,0
2023-02-25T00:40:54.456Z,0
2023-02-25T00:41:54.469Z,0
2023-02-25T00:42:54.458Z,0
2023-02-25T00:43:54.473Z,0
2023-02-25T00:44:54.466Z,0
2023-02-25T00:45:54.526Z,0
2023-02-25T00:46:54.460Z,0
2023-02-25T00:47:54.460Z,0
2023-02-25T00:48:54.482Z,0
2023-02-25T00:49:54.456Z,0
2023-02-25T00:50:54.476Z,0
2023-02-25T00:51:54.461Z,0
2023-02-25T00:52:54.459Z,0
2023-02-25T00:53:54.499Z,0
2023-02-25T00:54:54.458Z,0
2023-02-25T00:55:54.456Z,0
2023-02-25T00:56:54.458Z,0
2023-02-25T00:57:54.465Z,0
2023-02-25T00:58:54.492Z,0
2023-02-25T00:59:54.462Z,0
2023-02-25T01:00:54.454Z,0
2023-02-25T01:01:54.498Z,0
2023-02-25T01:02:54.485Z,0
2023-02-25T01:03:54.485Z,0
2023-02-25T01:04:54.469Z,0
2023-02-25T01:05:54.469Z,0
2023-02-25T01:06:54.480Z,0
2023-02-25T01:07:54.466Z,0
2023-02-25T01:08:54.472Z,0
2023-02-25T01:09:54.464Z,0
2023-02-25T01:10:54.459Z,0
2023-02-25T01:11:54.457Z,0
2023-02-25T01:12:54.458Z,0
2023-02-25T01:13:54.557Z,0
2023-02-25T01:14:54.457Z,0
2023-02-25T01:15:54.530Z,0
2023-02-25T01:16:54.454Z,0
2023-02-25T01:17:54.459Z,0
2023-02-25T01:18:54.476Z,0
2023-02-25T01:19:54.457Z,0
2023-02-25T01:20:54.472Z,0
2023-02-25T01:21:54.465Z,0
2023-02-25T01:22:54.454Z,0
2023-02-25T01:23:54.470Z,0
2023-02-25T01:24:54.456Z,0
2023-02-25T01:25:54.459Z,0
2023-02-25T01:26:54.451Z,0
2023-02-25T01:27:54.450Z,0
2023-02-25T01:28:54.475Z,0
2023-02-25T01:29:54.454Z,0
2023-02-25T01:30:54.602Z,0
2023-02-25T01:31:54.678Z,0
2023-02-25T01:32:54.540Z,0
2023-02-25T01:33:54.476Z,0
2023-02-25T01:34:54.451Z,0
2023-02-25T01:35:54.475Z,0
2023-02-25T01:36:54.455Z,0
2023-02-25T01:37:54.467Z,0
2023-02-25T01:38:54.478Z,0
2023-02-25T01:39:54.464Z,0
2023-02-25T01:40:54.461Z,0
2023-02-25T01:41:54.460Z,0
2023-02-25T01:42:54.458Z,0
2023-02-25T01:43:54.472Z,0
2023-02-25T01:44:54.454Z,0
2023-02-25T01:45:54.457Z,0
2023-02-25T01:46:54.517Z,0
2023-02-25T01:47:54.458Z,0
2023-02-25T01:48:54.473Z,0
2023-02-25T01:49:54.469Z,0
2023-02-25T01:50:54.471Z,0
2023-02-25T01:51:54.457Z,0
2023-02-25T01:52:54.460Z,0
2023-02-25T01:53:54.489Z,0
2023-02-25T01:54:54.485Z,0
2023-02-25T01:55:54.453Z,0
2023-02-25T01:56:54.466Z,0
2023-02-25T01:57:54.464Z,0
2023-02-25T01:58:54.474Z,0
2023-02-25T01:59:54.469Z,0
2023-02-25T02:00:54.497Z,0
2023-02-25T02:01:54.455Z,0
2023-02-25T02:02:54.509Z,0
2023-02-25T02:03:54.471Z,0
2023-02-25T02:04:54.452Z,0
2023-02-25T02:05:54.481Z,0
2023-02-25T02:06:54.458Z,0
2023-02-25T02:07:54.454Z,0
2023-02-25T02:08:54.466Z,0
2023-02-25T02:09:54.454Z,0
2023-02-25T02:10:54.458Z,0
2023-02-25T02:11:54.452Z,0
2023-02-25T02:12:54.458Z,0
2023-02-25T02:13:54.546Z,0
2023-02-25T02:14:54.452Z,0
2023-02-25T02:15:54.513Z,0
2023-02-25T02:16:54.458Z,0
2023-02-25T02:17:54.459Z,0
2023-02-25T02:18:54.481Z,0
2023-02-25T02:19:54.459Z,0
2023-02-25T02:20:54.480Z,0
2023-02-25T02:21:54.454Z,0
2023-02-25T02:22:54.461Z,0
2023-02-25T02:23:54.476Z,0
2023-02-25T02:24:54.446Z,0
2023-02-25T02:25:54.459Z,0
2023-02-25T02:26:54.454Z,0
2023-02-25T02:27:54.454Z,0
2023-02-25T02:28:54.478Z,0
2023-02-25T02:29:54.459Z,0
2023-02-25T02:30:54.485Z,0
2023-02-25T02:31:54.561Z,0
2023-02-25T02:32:54.458Z,0
2023-02-25T02:33:54.473Z,0
2023-02-25T02:34:54.447Z,0
2023-02-25T02:35:54.471Z,0
2023-02-25T02:36:54.453Z,0
2023-02-25T02:37:54.464Z,0
2023-02-25T02:38:54.483Z,0
2023-02-25T02:39:54.461Z,0
2023-02-25T02:40:54.491Z,0
2023-02-25T02:41:54.458Z,0
2023-02-25T02:42:54.526Z,0
2023-02-25T02:43:54.471Z,0
2023-02-25T02:44:54.457Z,0
2023-02-25T02:45:54.494Z,0
2023-02-25T02:46:54.454Z,0
2023-02-25T02:47:54.461Z,0
2023-02-25T02:48:54.490Z,0
2023-02-25T02:49:54.451Z,0
2023-02-25T02:50:54.465Z,0
2023-02-25T02:51:54.449Z,0
2023-02-25T02:52:54.459Z,0
2023-02-25T02:53:54.468Z,0
2023-02-25T02:54:54.450Z,0
2023-02-25T02:55:54.449Z,0
2023-02-25T02:56:54.446Z,0
2023-02-25T02:57:54.457Z,0
2023-02-25T02:58:54.469Z,0
2023-02-25T02:59:54.450Z,0
2023-02-25T03:00:54.481Z,0
2023-02-25T03:01:54.452Z,0
2023-02-25T03:02:54.460Z,0
2023-02-25T03:03:54.482Z,0
2023-02-25T03:04:54.444Z,0
2023-02-25T03:05:54.464Z,0
2023-02-25T03:06:54.446Z,0
2023-02-25T03:07:54.453Z,0
2023-02-25T03:08:54.466Z,0
2023-02-25T03:09:54.451Z,0
2023-02-25T03:10:54.446Z,0
2023-02-25T03:11:54.450Z,0
2023-02-25T03:12:54.459Z,0
2023-02-25T03:13:54.462Z,0
2023-02-25T03:14:54.449Z,0
2023-02-25T03:15:54.464Z,0
2023-02-25T03:16:54.523Z,0
2023-02-25T03:17:54.460Z,0
2023-02-25T03:18:54.466Z,0
2023-02-25T03:19:54.443Z,0
2023-02-25T03:20:54.474Z,0
2023-02-25T03:21:54.451Z,0
2023-02-25T03:22:54.447Z,0
2023-02-25T03:23:54.466Z,0
2023-02-25T03:24:54.456Z,0
2023-02-25T03:25:54.463Z,0
2023-02-25T03:26:54.467Z,0
2023-02-25T03:27:54.458Z,0
2023-02-25T03:28:54.478Z,0
2023-02-25T03:29:54.443Z,0
2023-02-25T03:30:54.541Z,0
2023-02-25T03:31:54.553Z,0
2023-02-25T03:32:54.532Z,0
2023-02-25T03:33:54.474Z,0
2023-02-25T03:34:54.450Z,0
2023-02-25T03:35:54.470Z,0
2023-02-25T03:36:54.456Z,0
2023-02-25T03:37:54.459Z,0
2023-02-25T03:38:54.462Z,0
2023-02-25T03:39:54.451Z,0
2023-02-25T03:40:54.443Z,0
2023-02-25T03:41:54.459Z,0
2023-02-25T03:42:54.473Z,0
2023-02-25T03:43:54.469Z,0
2023-02-25T03:44:54.447Z,0
2023-02-25T03:45:54.506Z,0
2023-02-25T03:46:54.461Z,0
2023-02-25T03:47:54.475Z,0
2023-02-25T03:48:54.465Z,0
2023-02-25T03:49:54.450Z,0
2023-02-25T03:50:54.470Z,0
2023-02-25T03:51:54.460Z,0
2023-02-25T03:52:54.464Z,0
2023-02-25T03:53:54.479Z,0
2023-02-25T03:54:54.451Z,0
2023-02-25T03:55:54.452Z,0
2023-02-25T03:56:54.453Z,0
2023-02-25T03:57:54.453Z,0
2023-02-25T03:58:54.475Z,0
2023-02-25T03:59:54.445Z,0
2023-02-25T04:00:54.472Z,0
2023-02-25T04:01:54.451Z,0
2023-02-25T04:02:54.460Z,0
2023-02-25T04:03:54.473Z,0
2023-02-25T04:04:54.523Z,0
2023-02-25T04:05:54.491Z,0
2023-02-25T04:06:54.454Z,0
2023-02-25T04:07:54.442Z,0
2023-02-25T04:08:54.455Z,0
2023-02-25T04:09:54.447Z,0
2023-02-25T04:10:54.452Z,0
2023-02-25T04:11:54.438Z,0
2023-02-25T04:12:54.445Z,0
2023-02-25T04:13:54.454Z,0
2023-02-25T04:14:54.441Z,0
2023-02-25T04:15:54.556Z,0
2023-02-25T04:16:54.444Z,0
2023-02-25T04:17:54.444Z,0
2023-02-25T04:18:54.459Z,0
2023-02-25T04:19:54.452Z,0
2023-02-25T04:20:54.452Z,0
2023-02-25T04:21:54.449Z,0
2023-02-25T04:22:54.451Z,0
2023-02-25T04:23:54.459Z,0
2023-02-25T04:24:54.451Z,0
2023-02-25T04:25:54.448Z,0
2023-02-25T04:26:54.442Z,0
2023-02-25T04:27:54.453Z,0
2023-02-25T04:28:54.466Z,0
2023-02-25T04:29:54.445Z,0
2023-02-25T04:30:54.527Z,0
2023-02-25T04:31:54.554Z,0
2023-02-25T04:32:54.498Z,0
2023-02-25T04:33:54.465Z,0
2023-02-25T04:34:54.444Z,0
2023-02-25T04:35:54.471Z,0
2023-02-25T04:36:54.469Z,0
2023-02-25T04:37:54.447Z,0
2023-02-25T04:38:54.487Z,0
2023-02-25T04:39:54.462Z,0
2023-02-25T04:40:54.452Z,0
2023-02-25T04:41:54.448Z,0
2023-02-25T04:42:54.443Z,0
2023-02-25T04:43:54.464Z,0
2023-02-25T04:44:54.443Z,0
2023-02-25T04:45:54.442Z,0
2023-02-25T04:46:54.485Z,0
2023-02-25T04:47:54.444Z,0
2023-02-25T04:48:54.462Z,0
2023-02-25T04:49:54.448Z,0
2023-02-25T04:50:54.461Z,0
2023-02-25T04:51:54.474Z,0
2023-02-25T04:52:54.451Z,0
2023-02-25T04:53:54.476Z,0
2023-02-25T04:54:54.447Z,0
2023-02-25T04:55:54.455Z,0
2023-02-25T04:56:54.447Z,0
2023-02-25T04:57:54.439Z,0
2023-02-25T04:58:54.461Z,0
2023-02-25T04:59:54.455Z,0
2023-02-25T05:00:54.463Z,0
2023-02-25T05:01:54.513Z,0
2023-02-25T05:02:54.449Z,0
2023-02-25T05:03:54.456Z,0
2023-02-25T05:04:54.519Z,0
2023-02-25T05:05:54.466Z,0
2023-02-25T05:06:54.448Z,0
2023-02-25T05:07:54.463Z,0
2023-02-25T05:08:54.469Z,0
2023-02-25T05:09:54.446Z,0
2023-02-25T05:10:54.456Z,0
2023-02-25T05:11:54.451Z,0
2023-02-25T05:12:54.456Z,0
2023-02-25T05:13:54.475Z,0
2023-02-25T05:14:54.459Z,0
2023-02-25T05:15:54.481Z,0
2023-02-25T05:16:54.470Z,0
2023-02-25T05:17:54.459Z,0
2023-02-25T05:18:54.477Z,0
2023-02-25T05:19:54.450Z,0
2023-02-25T05:20:54.478Z,0
2023-02-25T05:21:54.446Z,0
2023-02-25T05:22:54.449Z,0
2023-02-25T05:23:54.521Z,0
2023-02-25T05:24:54.465Z,0
2023-02-25T05:25:54.450Z,0
2023-02-25T05:26:54.448Z,0
2023-02-25T05:27:54.453Z,0
2023-02-25T05:28:54.461Z,0
2023-02-25T05:29:54.545Z,0
2023-02-25T05:30:54.515Z,0
2023-02-25T05:31:54.633Z,0
2023-02-25T05:32:54.530Z,0
2023-02-25T05:33:54.468Z,0
2023-02-25T05:34:54.447Z,0
2023-02-25T05:35:54.461Z,0
2023-02-25T05:36:54.451Z,0
2023-02-25T05:37:54.457Z,0
2023-02-25T05:38:54.456Z,0
2023-02-25T05:39:54.444Z,0
2023-02-25T05:40:54.455Z,0
2023-02-25T05:41:54.448Z,0
2023-02-25T05:42:54.487Z,0
2023-02-25T05:43:54.460Z,0
2023-02-25T05:44:54.452Z,0
2023-02-25T05:45:54.450Z,0
2023-02-25T05:46:54.499Z,0
2023-02-25T05:47:54.455Z,0
2023-02-25T05:48:54.542Z,0.01
2023-02-25T05:49:54.446Z,0.01
2023-02-25T05:50:54.461Z,0.01
2023-02-25T05:51:54.446Z,0.01
2023-02-25T05:52:54.454Z,0.01
2023-02-25T05:53:54.474Z,0.01
2023-02-25T05:54:54.439Z,0.02
2023-02-25T05:55:54.444Z,0.02
2023-02-25T05:56:54.453Z,0.02
2023-02-25T05:57:54.444Z,0.02
2023-02-25T05:58:54.452Z,0.02
2023-02-25T05:59:54.442Z,0.03
2023-02-25T06:00:54.452Z,0.03
2023-02-25T06:01:54.517Z,0.04
2023-02-25T06:02:54.506Z,0.04
2023-02-25T06:03:54.460Z,0.04
2023-02-25T06:04:54.454Z,0.05
2023-02-25T06:05:54.484Z,0.05
2023-02-25T06:06:54.444Z,0.05
2023-02-25T06:07:54.444Z,0.06
2023-02-25T06:08:54.457Z,0.05
2023-02-25T06:09:54.441Z,0.06
2023-02-25T06:10:54.452Z,0.06
2023-02-25T06:11:54.444Z,0.06
2023-02-25T06:12:54.443Z,0.06
2023-02-25T06:13:54.477Z,0.06
2023-02-25T06:14:54.448Z,0.07
2023-02-25T06:15:54.441Z,0.07
2023-02-25T06:16:54.521Z,0.07
2023-02-25T06:17:54.448Z,0.08
2023-02-25T06:18:54.468Z,0.08
2023-02-25T06:19:54.455Z,0.08
2023-02-25T06:20:54.458Z,0.08
2023-02-25T06:21:54.443Z,0.08
2023-02-25T06:22:54.467Z,0.08
2023-02-25T06:23:54.460Z,0.08
2023-02-25T06:24:54.443Z,0.08
2023-02-25T06:25:54.455Z,0.08
2023-02-25T06:26:54.440Z,0.09
2023-02-25T06:27:54.448Z,0.09
2023-02-25T06:28:54.464Z,0.1
2023-02-25T06:29:54.444Z,0.1
2023-02-25T06:30:54.524Z,0.1
2023-02-25T06:31:54.490Z,0.11
2023-02-25T06:32:54.490Z,0.11
2023-02-25T06:33:54.457Z,0.12
2023-02-25T06:34:54.446Z,0.12
2023-02-25T06:35:54.465Z,0.12
2023-02-25T06:36:54.458Z,0.13
2023-02-25T06:37:54.455Z,0.14
2023-02-25T06:38:54.457Z,0.14
2023-02-25T06:39:54.457Z,0.14
2023-02-25T06:40:54.446Z,0.15
2023-02-25T06:41:54.557Z,0.16
2023-02-25T06:42:54.452Z,0.16
2023-02-25T06:43:54.464Z,0.17
2023-02-25T06:44:54.452Z,0.18
2023-02-25T06:45:54.489Z,0.19
2023-02-25T06:46:54.447Z,0.2
2023-02-25T06:47:54.452Z,0.21
2023-02-25T06:48:54.508Z,0.2
2023-02-25T06:49:54.441Z,0.2
2023-02-25T06:50:54.460Z,0.2
2023-02-25T06:51:54.446Z,0.21
2023-02-25T06:52:54.444Z,0.21
2023-02-25T06:53:54.470Z,0.21
2023-02-25T06:54:54.453Z,0.21
2023-02-25T06:55:54.450Z,0.22
2023-02-25T06:56:54.460Z,0.21
2023-02-25T06:57:54.447Z,0.21
2023-02-25T06:58:54.470Z,0.22
2023-02-25T06:59:54.452Z,0.22
2023-02-25T07:00:54.494Z,0.24
2023-02-25T07:01:54.454Z,0.24
2023-02-25T07:02:54.454Z,0.25
2023-02-25T07:03:54.471Z,0.26
2023-02-25T07:04:54.580Z,0.26
2023-02-25T07:05:54.468Z,0.25
2023-02-25T07:06:54.439Z,0.26
2023-02-25T07:07:54.451Z,0.26
2023-02-25T07:08:54.468Z,0.27
2023-02-25T07:09:54.482Z,0.3
2023-02-25T07:10:54.449Z,0.31
2023-02-25T07:11:54.450Z,0.33
2023-02-25T07:12:54.443Z,0.32
2023-02-25T07:13:54.472Z,0.35
2023-02-25T07:14:54.443Z,0.36
2023-02-25T07:15:54.501Z,0.33
2023-02-25T07:16:54.465Z,0.32
2023-02-25T07:17:54.453Z,0.33
2023-02-25T07:18:54.453Z,0.36
2023-02-25T07:19:54.449Z,0.37
2023-02-25T07:20:54.456Z,0.39
2023-02-25T07:21:54.438Z,0.4
2023-02-25T07:22:54.442Z,0.41
2023-02-25T07:23:54.462Z,0.4
2023-02-25T07:24:54.480Z,0.44
2023-02-25T07:25:54.446Z,0.44
2023-02-25T07:26:54.440Z,0.43
2023-02-25T07:27:54.459Z,0.45
2023-02-25T07:28:54.459Z,0.45
2023-02-25T07:29:54.449Z,0.47
2023-02-25T07:30:54.582Z,0.51
2023-02-25T07:31:54.726Z,0.5
2023-02-25T07:32:54.488Z,0.44
2023-02-25T07:33:54.471Z,0.41
2023-02-25T07:34:54.453Z,0.42
2023-02-25T07:35:54.457Z,0.43
2023-02-25T07:36:54.448Z,0.4
2023-02-25T07:37:54.457Z,0.38
2023-02-25T07:38:54.477Z,0.39
2023-02-25T07:39:54.456Z,0.36
2023-02-25T07:40:54.447Z,0.38
2023-02-25T07:41:54.447Z,0.37
2023-02-25T07:42:54.449Z,0.38
2023-02-25T07:43:54.462Z,0.37
2023-02-25T07:44:54.461Z,0.36
2023-02-25T07:45:54.468Z,0.37
2023-02-25T07:46:54.458Z,0.36
2023-02-25T07:47:54.458Z,0.39
2023-02-25T07:48:54.477Z,0.42
2023-02-25T07:49:54.460Z,0.44
2023-02-25T07:50:54.466Z,0.48
2023-02-25T07:51:54.462Z,0.51
2023-02-25T07:52:54.450Z,0.53
2023-02-25T07:53:54.629Z,0.51
2023-02-25T07:54:54.464Z,0.52
2023-02-25T07:55:54.452Z,0.51
2023-02-25T07:56:54.460Z,0.59
2023-02-25T07:57:54.449Z,0.59
2023-02-25T07:58:54.463Z,0.58
2023-02-25T07:59:54.452Z,0.6
2023-02-25T08:00:54.449Z,0.52
2023-02-25T08:01:54.449Z,0.51
2023-02-25T08:02:54.581Z,0.5
2023-02-25T08:03:54.464Z,0.43
2023-02-25T08:04:54.455Z,0.35
2023-02-25T08:05:54.483Z,0.4
2023-02-25T08:06:54.471Z,0.37
2023-02-25T08:07:54.448Z,0.39
2023-02-25T08:08:54.465Z,0.45
2023-02-25T08:09:54.456Z,0.39
2023-02-25T08:10:54.463Z,0.44
2023-02-25T08:11:54.453Z,0.4
2023-02-25T08:12:54.464Z,0.4
2023-02-25T08:13:54.476Z,0.45
2023-02-25T08:14:54.472Z,0.42
2023-02-25T08:15:54.455Z,0.5
2023-02-25T08:16:54.455Z,0.51
2023-02-25T08:17:54.460Z,0.48
2023-02-25T08:18:54.473Z,0.4
2023-02-25T08:19:54.457Z,0.43
2023-02-25T08:20:54.475Z,0.41
2023-02-25T08:21:54.495Z,0.36
2023-02-25T08:22:54.458Z,0.36
2023-02-25T08:23:54.485Z,0.37
2023-02-25T08:24:54.461Z,0.4
2023-02-25T08:25:54.462Z,0.39
2023-02-25T08:26:54.468Z,0.39
2023-02-25T08:27:54.463Z,0.39
2023-02-25T08:28:54.476Z,0.35
2023-02-25T08:29:54.457Z,0.37
2023-02-25T08:30:54.605Z,0.4
2023-02-25T08:31:54.663Z,0.39
2023-02-25T08:32:54.505Z,0.35
2023-02-25T08:33:54.470Z,0.34
2023-02-25T08:34:54.465Z,0.37
2023-02-25T08:36:48.989Z,0.37
2023-02-25T08:37:47.865Z,0.44
2023-02-25T08:38:47.864Z,0.45
2023-02-25T08:39:47.862Z,0.42
2023-02-25T08:40:47.865Z,0.37
2023-02-25T08:41:47.856Z,0.38
2023-02-25T08:42:47.852Z,0.48
2023-02-25T08:43:47.860Z,0.45
2023-02-25T08:44:47.853Z,0.43
2023-02-25T08:45:47.855Z,0.36
2023-02-25T08:46:47.915Z,0.34
2023-02-25T08:47:47.848Z,0.33
2023-02-25T08:48:47.849Z,0.44
2023-02-25T08:49:47.857Z,0.46
2023-02-25T08:50:47.846Z,0.44
2023-02-25T08:51:47.867Z,0.43
2023-02-25T08:52:47.852Z,0.41
2023-02-25T08:53:47.851Z,0.4
2023-02-25T08:54:47.854Z,0.38
2023-02-25T08:55:47.847Z,0.45
2023-02-25T08:56:47.846Z,0.51
2023-02-25T08:57:47.855Z,0.49
2023-02-25T08:58:47.843Z,0.49
2023-02-25T09:00:43.061Z,0.57
2023-02-25T09:01:42.128Z,0.61
2023-02-25T09:02:42.139Z,0.7
2023-02-25T09:03:42.117Z,0.7
2023-02-25T09:04:42.237Z,0.69
2023-02-25T09:05:42.107Z,0.72
2023-02-25T09:06:42.112Z,0.77
2023-02-25T09:07:42.148Z,0.77
2023-02-25T09:08:42.135Z,0.73
2023-02-25T09:09:42.106Z,0.68
2023-02-25T09:10:50.168Z,0.68
2023-02-25T09:11:42.099Z,0.71
2023-02-25T09:12:42.123Z,0.7
2023-02-25T09:13:42.102Z,0.73
2023-02-25T09:14:42.147Z,0.79
2023-02-25T09:15:42.128Z,0.81
2023-02-25T09:16:42.213Z,0.78
2023-02-25T09:17:42.108Z,0.75
2023-02-25T09:18:42.093Z,0.72
2023-02-25T09:19:42.142Z,0.77
2023-02-25T09:20:42.108Z,0.82
2023-02-25T09:21:42.106Z,0.86
2023-02-25T09:22:42.115Z,0.94
2023-02-25T09:23:42.106Z,0.94
2023-02-25T09:24:42.107Z,0.94
2023-02-25T09:25:42.120Z,0.89
2023-02-25T09:26:42.109Z,0.92
2023-02-25T09:27:42.144Z,0.95
2023-02-25T09:28:42.110Z,1.06
2023-02-25T09:29:42.137Z,1.12
2023-02-25T09:30:42.154Z,1.11
2023-02-25T09:31:42.295Z,1.2
2023-02-25T09:32:42.215Z,1.12
2023-02-25T09:33:42.100Z,1.21
2023-02-25T09:34:42.108Z,1.15
2023-02-25T09:35:42.121Z,1.28
2023-02-25T09:36:42.110Z,1.2
2023-02-25T09:37:42.119Z,1.14
2023-02-25T09:38:42.099Z,1.02
2023-02-25T09:39:42.108Z,1.11
2023-02-25T09:40:42.122Z,1.06
2023-02-25T09:41:42.120Z,1.07
2023-02-25T09:42:42.121Z,0.98
2023-02-25T09:43:42.103Z,0.91
2023-02-25T09:44:42.094Z,1.02
2023-02-25T09:45:42.181Z,0.98
2023-02-25T09:46:42.103Z,0.96
2023-02-25T09:47:42.222Z,1.07
2023-02-25T09:48:42.110Z,1.1
2023-02-25T09:49:42.097Z,1.18
2023-02-25T09:50:42.115Z,1.13
2023-02-25T09:51:42.100Z,1.1
2023-02-25T09:52:42.125Z,1.24
2023-02-25T09:53:42.109Z,1.35
2023-02-25T09:54:42.114Z,1.39
2023-02-25T09:55:42.150Z,1.22
2023-02-25T09:56:42.092Z,1.25
2023-02-25T09:57:42.106Z,1.21
2023-02-25T09:58:42.095Z,1.21
2023-02-25T09:59:42.102Z,1.2
2023-02-25T10:00:42.112Z,1.47
2023-02-25T10:01:42.101Z,1.59
2023-02-25T10:02:42.257Z,1.66
2023-02-25T10:03:42.103Z,1.6
2023-02-25T10:04:42.118Z,1.55
2023-02-25T10:05:42.110Z,1.42
2023-02-25T10:06:44.090Z,1.47
2023-02-25T10:07:42.112Z,1.61
2023-02-25T10:08:42.105Z,1.6
2023-02-25T10:09:42.095Z,1.63
2023-02-25T10:10:42.111Z,1.51
2023-02-25T10:11:42.113Z,1.72
2023-02-25T10:12:42.098Z,1.96
2023-02-25T10:13:42.126Z,2.38
2023-02-25T10:14:42.118Z,3.01
2023-02-25T10:15:50.503Z,3.46
2023-02-25T10:16:42.185Z,3.5
2023-02-25T10:17:42.098Z,2.91
2023-02-25T10:18:42.105Z,2.49
2023-02-25T10:19:42.106Z,2.4
2023-02-25T10:20:42.115Z,2.37
2023-02-25T10:21:42.115Z,2.23
2023-02-25T10:22:42.117Z,2.55
2023-02-25T10:23:42.099Z,2.7
2023-02-25T10:24:42.097Z,2.07
2023-02-25T10:25:42.115Z,2.58
2023-02-25T10:26:42.101Z,2.11
2023-02-25T10:27:42.100Z,1.53
2023-02-25T10:28:42.104Z,1.08
2023-02-25T10:29:42.087Z,1.15
2023-02-25T10:30:42.198Z,1.23
2023-02-25T10:31:42.261Z,1.27
2023-02-25T10:32:42.159Z,1.09
2023-02-25T10:33:42.102Z,0.9
2023-02-25T10:34:42.091Z,1.16
2023-02-25T10:35:42.109Z,1.26
2023-02-25T10:36:42.104Z,1.67
2023-02-25T10:37:42.116Z,2.19
2023-02-25T10:38:42.105Z,2.08
2023-02-25T10:39:42.102Z,3.6
2023-02-25T10:40:42.114Z,3.07
2023-02-25T10:41:42.100Z,2.42
2023-02-25T10:42:42.102Z,1.96
2023-02-25T10:43:42.100Z,2.47
2023-02-25T10:44:42.102Z,2.81
2023-02-25T10:45:42.113Z,4.34
2023-02-25T10:46:42.102Z,4.45
2023-02-25T10:47:42.120Z,3.29
2023-02-25T10:48:42.109Z,3.2
2023-02-25T10:49:42.099Z,4.39
2023-02-25T10:50:46.297Z,3.13
2023-02-25T10:51:42.117Z,2.49
2023-02-25T10:52:42.142Z,2.39
2023-02-25T10:53:42.101Z,2.31
2023-02-25T10:54:42.103Z,2.39
2023-02-25T10:55:42.121Z,2.64
2023-02-25T10:56:42.141Z,2.52
2023-02-25T10:57:42.088Z,2.81
2023-02-25T10:58:42.103Z,2.81
2023-02-25T10:59:42.098Z,2.41
2023-02-25T11:00:42.118Z,2.05
2023-02-25T11:01:42.174Z,1.66
2023-02-25T11:02:42.190Z,1.66
2023-02-25T11:03:42.101Z,1.6
2023-02-25T11:04:42.097Z,1.38
2023-02-25T11:05:42.109Z,1.27
2023-02-25T11:06:42.105Z,1.13
2023-02-25T11:07:42.131Z,1.13
2023-02-25T11:08:42.098Z,0.84
2023-02-25T11:09:42.099Z,0.83
2023-02-25T11:10:42.114Z,1.04
2023-02-25T11:11:42.109Z,1.08
2023-02-25T11:12:42.105Z,0.96
2023-02-25T11:13:42.105Z,1.03
2023-02-25T11:14:42.101Z,1.34
2023-02-25T11:15:45.826Z,1.89
2023-02-25T11:16:42.164Z,2.35
2023-02-25T11:17:42.106Z,2.61
2023-02-25T11:18:42.103Z,2.48
2023-02-25T11:19:42.097Z,2.53
2023-02-25T11:20:42.114Z,2.28
2023-02-25T11:21:42.103Z,1.74
2023-02-25T11:22:42.115Z,1.59
2023-02-25T11:23:42.101Z,1.62
2023-02-25T11:24:42.099Z,1.58
2023-02-25T11:25:42.109Z,1.64
2023-02-25T11:26:42.097Z,1.62
2023-02-25T11:27:42.098Z,1.53
2023-02-25T11:28:42.100Z,1.44
2023-02-25T11:29:42.100Z,1.45
2023-02-25T11:30:42.231Z,1.4
2023-02-25T11:31:42.364Z,1.55
2023-02-25T11:32:42.155Z,1.58
2023-02-25T11:33:42.100Z,1.55
2023-02-25T11:34:42.096Z,1.62
2023-02-25T11:35:42.127Z,1.4
2023-02-25T11:36:42.099Z,1.2
2023-02-25T11:37:44.642Z,0.97
2023-02-25T11:38:42.114Z,0.97
2023-02-25T11:39:42.093Z,1.28
2023-02-25T11:40:42.107Z,1.34
2023-02-25T11:41:42.093Z,1.32
2023-02-25T11:42:42.106Z,1.49
2023-02-25T11:43:42.102Z,1.52
2023-02-25T11:44:42.100Z,1.88
2023-02-25T11:45:42.102Z,1.9
2023-02-25T11:46:42.110Z,1.63
2023-02-25T11:47:42.110Z,1.68
2023-02-25T11:48:42.107Z,1.89
2023-02-25T11:49:42.706Z,1.92
2023-02-25T11:50:42.105Z,1.96
2023-02-25T11:51:42.089Z,1.92
2023-02-25T11:52:42.108Z,1.99
2023-02-25T11:53:42.137Z,1.87
2023-02-25T11:54:42.100Z,1.87
2023-02-25T11:55:42.108Z,1.78
2023-02-25T11:56:42.095Z,1.9
2023-02-25T11:57:42.105Z,1.51
2023-02-25T11:58:42.119Z,1.51
2023-02-25T11:59:42.097Z,1.28
2023-02-25T12:00:42.111Z,1.23
2023-02-25T12:01:42.096Z,1.11
2023-02-25T12:02:42.134Z,1.07
2023-02-25T12:03:42.095Z,1.4
2023-02-25T12:04:42.089Z,1.38
2023-02-25T12:05:42.181Z,1.66
2023-02-25T12:06:42.096Z,2.12
2023-02-25T12:07:47.876Z,2.33
2023-02-25T12:08:42.113Z,2.03
2023-02-25T12:09:42.104Z,3.1
2023-02-25T12:10:42.096Z,2.45
2023-02-25T12:11:42.092Z,2.32
2023-02-25T12:12:42.095Z,2.09
2023-02-25T12:13:42.135Z,3.14
2023-02-25T12:14:42.092Z,3.7
2023-02-25T12:15:42.097Z,4.72
2023-02-25T12:16:43.448Z,4.9
2023-02-25T12:17:42.096Z,5.31
2023-02-25T12:18:42.097Z,5.02
2023-02-25T12:19:42.104Z,4.59
2023-02-25T12:20:42.110Z,5.69
2023-02-25T12:21:42.089Z,3.88
2023-02-25T12:22:42.106Z,4.36
2023-02-25T12:23:42.095Z,4.42
2023-02-25T12:24:42.099Z,2.35
2023-02-25T12:25:42.100Z,1.52
2023-02-25T12:26:42.096Z,2.8
2023-02-25T12:27:42.104Z,1.81
2023-02-25T12:28:42.095Z,2.4
2023-02-25T12:29:42.089Z,3.7
2023-02-25T12:30:42.167Z,4.34
2023-02-25T12:31:42.214Z,3.07
2023-02-25T12:32:42.095Z,3.06
2023-02-25T12:33:42.090Z,7.53
2023-02-25T12:34:42.093Z,5.5
2023-02-25T12:35:42.106Z,3.46
2023-02-25T12:36:42.096Z,2.21
2023-02-25T12:37:42.118Z,2.42
2023-02-25T12:38:42.105Z,2.55
2023-02-25T12:39:42.087Z,2.48
2023-02-25T12:40:42.108Z,2.25
2023-02-25T12:41:42.097Z,1.97
2023-02-25T12:42:42.092Z,2.57
2023-02-25T12:43:42.098Z,8.74
2023-02-25T12:44:42.089Z,4.25
2023-02-25T12:45:42.195Z,7.34
2023-02-25T12:46:42.099Z,21.52
2023-02-25T12:47:42.103Z,5.69
2023-02-25T12:48:42.102Z,7.87
2023-02-25T12:49:42.087Z,8.36
2023-02-25T12:50:42.104Z,4.5
2023-02-25T12:51:42.095Z,6.27
2023-02-25T12:52:42.116Z,8.61
2023-02-25T12:53:42.097Z,7.52
2023-02-25T12:54:42.095Z,9.2
2023-02-25T12:55:42.107Z,8.78
2023-02-25T12:56:42.093Z,5.66
2023-02-25T12:57:42.098Z,5.24
2023-02-25T12:58:42.087Z,5.24
2023-02-25T12:59:42.100Z,7.57
2023-02-25T13:00:42.135Z,7.82
2023-02-25T13:01:42.107Z,4.92
2023-02-25T13:02:42.105Z,8.09
2023-02-25T13:03:42.138Z,5.19
2023-02-25T13:04:42.094Z,5.34
2023-02-25T13:05:42.140Z,6.03
2023-02-25T13:06:42.087Z,5.62
2023-02-25T13:07:42.109Z,5.52
2023-02-25T13:08:42.094Z,5.53
2023-02-25T13:09:42.090Z,6.16
2023-02-25T13:10:42.101Z,4.94
2023-02-25T13:12:07.277Z,4.71
2023-02-25T13:12:42.098Z,4.74
2023-02-25T13:13:42.101Z,3.95
2023-02-25T13:14:42.089Z,5.37
2023-02-25T13:15:42.098Z,5
2023-02-25T13:16:42.175Z,5.49
2023-02-25T13:17:42.089Z,3.2
2023-02-25T13:18:42.095Z,2.97
2023-02-25T13:19:42.082Z,4.33
2023-02-25T13:20:42.095Z,5.6
2023-02-25T13:21:42.094Z,5.45
2023-02-25T13:22:42.101Z,4.11
2023-02-25T13:23:42.088Z,2.99
2023-02-25T13:24:42.096Z,2.83
2023-02-25T13:25:42.095Z,2.34
2023-02-25T13:26:42.093Z,4.57
2023-02-25T13:27:42.096Z,2.29
2023-02-25T13:28:42.106Z,2.04
2023-02-25T13:29:42.086Z,3.97
2023-02-25T13:30:42.125Z,2.28
2023-02-25T13:31:42.188Z,2.41
2023-02-25T13:32:42.296Z,3.06
2023-02-25T13:33:42.097Z,3.22
2023-02-25T13:34:42.108Z,3.51
2023-02-25T13:35:42.105Z,3.65
2023-02-25T13:36:42.095Z,3.81
2023-02-25T13:37:42.102Z,2.51
2023-02-25T13:38:42.099Z,3.39
2023-02-25T13:39:42.084Z,3.72
2023-02-25T13:40:42.077Z,3.64
2023-02-25T13:41:42.100Z,3.44
2023-02-25T13:42:42.104Z,3.19
2023-02-25T13:43:42.095Z,2.72
2023-02-25T13:44:42.099Z,3.03
2023-02-25T13:45:42.132Z,2.54
2023-02-25T13:46:42.093Z,2.22
2023-02-25T13:47:42.102Z,1.75
2023-02-25T13:48:42.100Z,1.43
2023-02-25T13:49:42.090Z,1.34
2023-02-25T13:50:42.101Z,1.36
2023-02-25T13:51:42.104Z,1.36
2023-02-25T13:52:42.145Z,1.41
2023-02-25T13:53:42.093Z,1.37
2023-02-25T13:54:42.115Z,1.33
2023-02-25T13:55:42.093Z,1.17
2023-02-25T13:56:42.094Z,0.97
2023-02-25T13:57:42.092Z,0.78